createdAt,value
2018-09-01T00:02:01.463Z,18.50
2018-09-01T00:04:29.619Z,18.40
2018-09-01T00:06:57.745Z,18.40
2018-09-01T00:09:25.875Z,18.40
2018-09-01T00:11:54.013Z,18.40
2018-09-01T00:14:22.136Z,18.30
2018-09-01T00:16:50.297Z,18.30
2018-09-01T00:19:18.435Z,18.30
2018-09-01T00:21:46.626Z,18.20
2018-09-01T00:24:14.833Z,18.20
2018-09-01T00:26:43.539Z,18.20
2018-09-01T00:29:11.682Z,18.20
2018-09-01T00:31:39.802Z,18.10
2018-09-01T00:34:07.957Z,18.00
2018-09-01T00:36:36.136Z,17.90
2018-09-01T00:39:06.948Z,18.00
2018-09-01T00:41:35.758Z,18.00
2018-09-01T00:44:03.951Z,17.90
2018-09-01T00:46:32.756Z,17.90
2018-09-01T00:49:01.062Z,17.90
2018-09-01T00:51:29.210Z,17.90
2018-09-01T00:53:57.387Z,17.80
2018-09-01T00:56:26.128Z,17.70
2018-09-01T00:58:54.360Z,17.70
2018-09-01T01:01:22.620Z,17.60
2018-09-01T01:03:50.826Z,17.60
2018-09-01T01:06:18.972Z,17.60
2018-09-01T01:08:47.142Z,17.50
2018-09-01T01:11:17.367Z,17.60
2018-09-01T01:13:45.535Z,17.50
2018-09-01T01:16:13.824Z,17.60
2018-09-01T01:18:41.969Z,17.50
2018-09-01T01:21:10.129Z,17.60
2018-09-01T01:23:38.281Z,17.60
2018-09-01T01:26:06.402Z,17.60
2018-09-01T01:28:34.591Z,17.60
2018-09-01T01:31:02.724Z,17.60
2018-09-01T01:33:30.859Z,17.50
2018-09-01T01:35:58.976Z,17.40
2018-09-01T01:38:27.087Z,17.30
2018-09-01T01:40:55.220Z,17.30
2018-09-01T01:43:23.340Z,17.20
2018-09-01T01:45:51.484Z,17.20
2018-09-01T01:48:19.640Z,17.10
2018-09-01T01:50:47.745Z,17.10
2018-09-01T01:53:15.893Z,17.10
2018-09-01T01:55:44.040Z,17.20
2018-09-01T01:58:12.239Z,17.20
2018-09-01T02:00:40.420Z,17.10
2018-09-01T02:03:08.596Z,17.10
2018-09-01T02:05:36.768Z,17.10
2018-09-01T02:08:05.251Z,17.10
2018-09-01T02:10:33.429Z,17.00
2018-09-01T02:13:01.579Z,17.00
2018-09-01T02:15:29.732Z,17.00
2018-09-01T02:17:57.926Z,16.90
2018-09-01T02:20:26.102Z,16.80
2018-09-01T02:22:54.273Z,16.80
2018-09-01T02:25:22.392Z,16.80
2018-09-01T02:27:50.538Z,16.70
2018-09-01T02:30:18.696Z,16.70
2018-09-01T02:32:46.887Z,16.60
2018-09-01T02:35:15.044Z,16.60
2018-09-01T02:37:43.224Z,16.60
2018-09-01T02:40:11.365Z,16.50
2018-09-01T02:42:39.514Z,16.50
2018-09-01T02:45:08.191Z,16.40
2018-09-01T02:47:36.322Z,16.50
2018-09-01T02:50:04.494Z,16.40
2018-09-01T02:52:32.731Z,16.40
2018-09-01T02:55:00.903Z,16.30
2018-09-01T02:57:35.862Z,16.30
2018-09-01T03:00:08.255Z,16.30
2018-09-01T03:02:42.177Z,16.20
2018-09-01T03:05:10.378Z,16.20
2018-09-01T03:07:38.564Z,16.20
2018-09-01T03:10:06.698Z,16.20
2018-09-01T03:12:34.819Z,16.20
2018-09-01T03:15:03.083Z,16.10
2018-09-01T03:17:31.239Z,16.10
2018-09-01T03:19:59.395Z,16.00
2018-09-01T03:22:27.542Z,16.10
2018-09-01T03:24:55.945Z,16.10
2018-09-01T03:27:24.129Z,16.10
2018-09-01T03:29:52.256Z,16.00
2018-09-01T03:32:20.463Z,16.00
2018-09-01T03:34:48.604Z,15.90
2018-09-01T03:37:16.731Z,16.00
2018-09-01T03:39:44.959Z,16.00
2018-09-01T03:42:13.091Z,15.90
2018-09-01T03:44:42.420Z,15.90
2018-09-01T03:47:10.556Z,15.90
2018-09-01T03:49:38.709Z,15.90
2018-09-01T03:52:06.873Z,15.90
2018-09-01T03:54:35.075Z,15.90
2018-09-01T03:57:03.204Z,15.90
2018-09-01T03:59:31.372Z,15.90
2018-09-01T04:01:59.467Z,15.80
2018-09-01T04:04:27.601Z,15.90
2018-09-01T04:06:55.724Z,15.80
2018-09-01T04:09:23.872Z,15.80
2018-09-01T04:11:52.863Z,15.70
2018-09-01T04:14:21.037Z,15.60
2018-09-01T04:16:49.212Z,15.60
2018-09-01T04:19:18.332Z,15.50
2018-09-01T04:21:48.254Z,15.50
2018-09-01T04:24:16.629Z,15.60
2018-09-01T04:26:45.524Z,15.50
2018-09-01T04:29:13.929Z,15.50
2018-09-01T04:31:42.032Z,15.40
2018-09-01T04:34:10.207Z,15.40
2018-09-01T04:36:38.343Z,15.40
2018-09-01T04:39:07.933Z,15.40
2018-09-01T04:41:36.034Z,15.40
2018-09-01T04:44:04.173Z,15.40
2018-09-01T04:46:32.622Z,15.30
2018-09-01T04:49:00.880Z,15.30
2018-09-01T04:51:29.041Z,15.30
2018-09-01T04:53:57.204Z,15.20
2018-09-01T04:56:25.376Z,15.20
2018-09-01T04:58:53.513Z,15.20
2018-09-01T05:01:21.692Z,15.30
2018-09-01T05:03:50.791Z,15.30
2018-09-01T05:06:18.934Z,15.30
2018-09-01T05:08:47.086Z,15.30
2018-09-01T05:11:15.208Z,15.30
2018-09-01T05:13:43.314Z,15.30
2018-09-01T05:16:11.471Z,15.30
2018-09-01T05:18:39.617Z,15.40
2018-09-01T05:21:07.748Z,15.40
2018-09-01T05:23:35.870Z,15.40
2018-09-01T05:26:04.021Z,15.50
2018-09-01T05:28:32.160Z,15.40
2018-09-01T05:31:00.326Z,15.40
2018-09-01T05:33:28.480Z,15.50
2018-09-01T05:35:56.576Z,15.50
2018-09-01T05:38:25.743Z,15.50
2018-09-01T05:40:54.017Z,15.60
2018-09-01T05:43:22.128Z,15.60
2018-09-01T05:45:50.848Z,15.60
2018-09-01T05:48:19.035Z,15.70
2018-09-01T05:50:47.254Z,15.70
2018-09-01T05:53:15.333Z,15.80
2018-09-01T05:55:43.456Z,15.80
2018-09-01T05:58:11.594Z,15.90
2018-09-01T06:00:44.040Z,16.00
2018-09-01T06:03:12.211Z,16.10
2018-09-01T06:05:40.337Z,16.20
2018-09-01T06:08:08.485Z,16.30
2018-09-01T06:10:36.632Z,16.40
2018-09-01T06:13:04.746Z,16.40
2018-09-01T06:15:32.897Z,16.50
2018-09-01T06:18:01.058Z,16.50
2018-09-01T06:20:29.297Z,16.70
2018-09-01T06:22:57.434Z,16.80
2018-09-01T06:25:25.569Z,17.00
2018-09-01T06:27:55.383Z,17.20
2018-09-01T06:30:27.360Z,17.50
2018-09-01T06:32:55.606Z,18.00
2018-09-01T06:35:23.701Z,18.70
2018-09-01T06:37:51.828Z,19.40
2018-09-01T06:40:20.120Z,19.60
2018-09-01T06:42:48.251Z,19.50
2018-09-01T06:45:16.385Z,19.50
2018-09-01T06:47:44.531Z,19.90
2018-09-01T06:50:12.688Z,21.10
2018-09-01T06:52:40.879Z,22.30
2018-09-01T06:55:09.026Z,22.90
2018-09-01T06:57:37.129Z,22.80
2018-09-01T07:00:05.269Z,22.60
2018-09-01T07:02:33.462Z,22.50
2018-09-01T07:05:02.378Z,22.30
2018-09-01T07:07:30.512Z,21.90
2018-09-01T07:09:58.652Z,21.40
2018-09-01T07:12:26.855Z,21.10
2018-09-01T07:14:55.035Z,20.70
2018-09-01T07:17:23.200Z,20.40
2018-09-01T07:19:51.323Z,20.10
2018-09-01T07:22:19.459Z,20.00
2018-09-01T07:24:47.612Z,19.90
2018-09-01T07:27:15.824Z,19.80
2018-09-01T07:29:43.992Z,19.80
2018-09-01T07:32:12.128Z,19.70
2018-09-01T07:34:40.251Z,19.80
2018-09-01T07:37:08.427Z,19.60
2018-09-01T07:39:36.571Z,19.70
2018-09-01T07:42:04.708Z,19.70
2018-09-01T07:44:32.851Z,19.80
2018-09-01T07:47:01.401Z,19.90
2018-09-01T07:49:29.531Z,19.90
2018-09-01T07:51:57.651Z,20.00
2018-09-01T07:54:25.789Z,20.10
2018-09-01T07:56:53.888Z,20.20
2018-09-01T07:59:22.029Z,20.20
2018-09-01T08:01:51.226Z,20.30
2018-09-01T08:04:19.559Z,20.40
2018-09-01T08:06:47.671Z,20.60
2018-09-01T08:09:15.775Z,20.70
2018-09-01T08:11:43.901Z,20.70
2018-09-01T08:14:12.142Z,20.90
2018-09-01T08:16:40.195Z,21.20
2018-09-01T08:19:08.329Z,21.30
2018-09-01T08:21:36.455Z,21.40
2018-09-01T08:24:04.605Z,21.50
2018-09-01T08:26:32.723Z,21.60
2018-09-01T08:29:01.073Z,21.50
2018-09-01T08:31:29.335Z,21.60
2018-09-01T08:33:57.448Z,21.80
2018-09-01T08:36:25.585Z,22.00
2018-09-01T08:38:53.751Z,22.10
2018-09-01T08:41:21.904Z,22.10
2018-09-01T08:43:50.414Z,22.30
2018-09-01T08:46:18.564Z,22.50
2018-09-01T08:48:46.690Z,22.90
2018-09-01T08:51:14.948Z,22.90
2018-09-01T08:53:43.051Z,23.40
2018-09-01T08:56:11.263Z,24.50
2018-09-01T08:58:39.405Z,26.40
2018-09-01T09:01:07.496Z,28.90
2018-09-01T09:03:35.652Z,31.20
2018-09-01T09:06:03.811Z,32.70
2018-09-01T09:08:31.935Z,34.10
2018-09-01T09:11:00.040Z,35.60
2018-09-01T09:13:28.311Z,36.90
2018-09-01T09:15:56.404Z,37.70
2018-09-01T09:18:24.595Z,38.20
2018-09-01T09:20:52.699Z,39.00
2018-09-01T09:23:21.043Z,39.40
2018-09-01T09:25:49.132Z,38.20
2018-09-01T09:28:17.247Z,38.30
2018-09-01T09:30:45.385Z,38.90
2018-09-01T09:33:13.513Z,40.10
2018-09-01T09:35:41.605Z,39.80
2018-09-01T09:38:09.699Z,38.00
2018-09-01T09:40:37.852Z,35.70
2018-09-01T09:43:06.425Z,33.70
2018-09-01T09:45:34.567Z,32.60
2018-09-01T09:48:02.692Z,33.00
2018-09-01T09:50:30.817Z,32.80
2018-09-01T09:52:58.999Z,32.00
2018-09-01T09:55:27.107Z,31.40
2018-09-01T09:57:55.221Z,31.70
2018-09-01T10:00:28.932Z,31.50
2018-09-01T10:02:57.048Z,31.00
2018-09-01T10:05:25.246Z,30.10
2018-09-01T10:07:53.356Z,29.30
2018-09-01T10:10:21.549Z,28.70
2018-09-01T10:12:49.688Z,28.10
2018-09-01T10:15:18.116Z,27.50
2018-09-01T10:17:46.244Z,27.10
2018-09-01T10:20:14.557Z,26.80
2018-09-01T10:22:42.543Z,26.60
2018-09-01T10:25:10.679Z,26.40
2018-09-01T10:27:38.856Z,26.20
2018-09-01T10:30:07.124Z,26.40
2018-09-01T10:32:36.331Z,26.80
2018-09-01T10:35:04.456Z,27.10
2018-09-01T10:37:32.671Z,27.10
2018-09-01T10:40:00.786Z,27.00
2018-09-01T10:44:56.791Z,27.60
2018-09-01T10:47:24.900Z,28.10
2018-09-01T10:49:53.021Z,28.50
2018-09-01T10:52:21.129Z,28.60
2018-09-01T10:54:49.223Z,28.60
2018-09-01T10:57:17.323Z,28.40
2018-09-01T10:59:45.538Z,28.10
2018-09-01T11:02:13.590Z,28.30
2018-09-01T11:04:42.655Z,28.40
2018-09-01T11:07:11.096Z,28.70
2018-09-01T11:09:39.185Z,29.10
2018-09-01T11:12:07.312Z,29.50
2018-09-01T11:14:35.417Z,29.80
2018-09-01T11:17:03.522Z,30.20
2018-09-01T11:19:31.648Z,29.90
2018-09-01T11:21:59.740Z,29.50
2018-09-01T11:24:27.863Z,29.20
2018-09-01T11:26:56.033Z,28.80
2018-09-01T11:31:52.084Z,27.70
2018-09-01T11:34:20.226Z,27.60
2018-09-01T11:36:48.340Z,27.10
2018-09-01T11:39:16.425Z,26.90
2018-09-01T11:41:44.543Z,26.90
2018-09-01T11:44:12.686Z,27.20
2018-09-01T11:46:40.809Z,27.80
2018-09-01T11:49:08.948Z,28.30
2018-09-01T11:51:37.089Z,28.70
2018-09-01T11:54:05.443Z,29.10
2018-09-01T11:56:33.567Z,29.40
2018-09-01T11:59:01.741Z,29.70
2018-09-01T12:01:29.932Z,29.90
2018-09-01T12:03:58.164Z,29.80
2018-09-01T12:06:26.237Z,29.50
2018-09-01T12:08:54.366Z,29.00
2018-09-01T12:11:22.465Z,28.60
2018-09-01T12:13:51.524Z,27.60
2018-09-01T12:16:19.607Z,28.00
2018-09-01T12:18:47.772Z,27.80
2018-09-01T12:21:15.900Z,27.60
2018-09-01T12:23:44.025Z,27.40
2018-09-01T12:26:12.137Z,27.40
2018-09-01T12:28:40.248Z,27.40
2018-09-01T12:31:08.728Z,27.30
2018-09-01T12:33:36.948Z,27.30
2018-09-01T12:36:05.335Z,27.00
2018-09-01T12:38:33.422Z,27.10
2018-09-01T12:41:01.545Z,27.30
2018-09-01T12:43:29.632Z,27.40
2018-09-01T12:45:57.713Z,27.60
2018-09-01T12:48:26.397Z,27.90
2018-09-01T12:50:54.525Z,28.00
2018-09-01T12:53:22.615Z,27.80
2018-09-01T12:55:51.688Z,27.70
2018-09-01T12:58:20.986Z,27.70
2018-09-01T13:00:49.186Z,27.50
2018-09-01T13:03:17.364Z,27.50
2018-09-01T13:05:45.451Z,27.50
2018-09-01T13:08:13.579Z,27.40
2018-09-01T13:10:41.891Z,27.60
2018-09-01T13:13:09.999Z,27.90
2018-09-01T13:15:38.123Z,28.10
2018-09-01T13:18:06.229Z,28.40
2018-09-01T13:20:34.340Z,28.60
2018-09-01T13:23:02.613Z,29.00
2018-09-01T13:25:30.825Z,29.10
2018-09-01T13:27:58.912Z,29.40
2018-09-01T13:30:26.994Z,29.70
2018-09-01T13:32:55.098Z,30.00
2018-09-01T13:35:23.199Z,30.30
2018-09-01T13:37:51.715Z,30.50
2018-09-01T13:40:19.844Z,30.30
2018-09-01T13:42:48.040Z,29.70
2018-09-01T13:45:16.222Z,29.80
2018-09-01T13:47:44.331Z,30.00
2018-09-01T13:50:12.443Z,30.00
2018-09-01T13:52:40.713Z,29.60
2018-09-01T13:55:08.816Z,29.20
2018-09-01T13:57:36.959Z,29.00
2018-09-01T14:00:05.569Z,28.60
2018-09-01T14:02:33.792Z,28.20
2018-09-01T14:05:01.936Z,28.10
2018-09-01T14:07:30.072Z,28.30
2018-09-01T14:09:58.240Z,28.50
2018-09-01T14:12:26.399Z,28.50
2018-09-01T14:14:54.733Z,28.70
2018-09-01T14:17:22.705Z,28.90
2018-09-01T14:19:52.202Z,29.10
2018-09-01T14:22:20.611Z,29.20
2018-09-01T14:24:48.726Z,29.30
2018-09-01T14:27:16.955Z,29.30
2018-09-01T14:29:45.989Z,29.30
2018-09-01T14:32:14.306Z,29.30
2018-09-01T14:34:42.483Z,29.50
2018-09-01T14:37:10.684Z,29.70
2018-09-01T14:39:38.751Z,29.50
2018-09-01T14:42:06.884Z,29.70
2018-09-01T14:44:35.030Z,29.90
2018-09-01T14:47:03.140Z,29.60
2018-09-01T14:49:31.383Z,29.30
2018-09-01T14:51:59.496Z,29.10
2018-09-01T14:54:27.829Z,28.80
2018-09-01T14:56:55.936Z,28.70
2018-09-01T14:59:24.171Z,28.50
2018-09-01T15:01:52.215Z,28.30
2018-09-01T15:04:20.491Z,28.00
2018-09-01T15:06:48.612Z,27.90
2018-09-01T15:09:16.755Z,28.00
2018-09-01T15:11:44.896Z,28.10
2018-09-01T15:14:13.591Z,28.30
2018-09-01T15:16:41.705Z,28.30
2018-09-01T15:19:10.133Z,28.50
2018-09-01T15:21:38.510Z,28.70
2018-09-01T15:24:07.137Z,28.70
2018-09-01T15:26:35.244Z,28.70
2018-09-01T15:29:03.379Z,28.50
2018-09-01T15:31:31.563Z,28.40
2018-09-01T15:34:00.415Z,28.20
2018-09-01T15:36:28.563Z,28.30
2018-09-01T15:38:56.656Z,28.40
2018-09-01T15:41:24.774Z,28.40
2018-09-01T15:43:52.904Z,28.50
2018-09-01T15:46:21.029Z,28.50
2018-09-01T15:48:49.167Z,28.50
2018-09-01T15:51:17.342Z,28.50
2018-09-01T15:53:45.504Z,28.50
2018-09-01T15:56:13.632Z,28.30
2018-09-01T15:58:41.747Z,28.20
2018-09-01T16:01:09.964Z,28.30
2018-09-01T16:03:38.255Z,28.30
2018-09-01T16:06:06.343Z,28.30
2018-09-01T16:08:34.477Z,28.40
2018-09-01T16:11:02.626Z,28.30
2018-09-01T16:13:30.754Z,28.20
2018-09-01T16:15:58.848Z,28.10
2018-09-01T16:18:26.960Z,27.90
2018-09-01T16:20:55.070Z,28.00
2018-09-01T16:23:23.199Z,28.10
2018-09-01T16:25:52.152Z,28.10
2018-09-01T16:28:20.270Z,28.10
2018-09-01T16:30:48.389Z,28.10
2018-09-01T16:33:16.511Z,27.90
2018-09-01T16:35:44.701Z,27.80
2018-09-01T16:38:12.839Z,27.70
2018-09-01T16:40:40.991Z,27.60
2018-09-01T16:43:09.121Z,27.40
2018-09-01T16:45:37.248Z,27.30
2018-09-01T16:48:05.468Z,27.30
2018-09-01T16:50:34.236Z,27.20
2018-09-01T16:53:02.377Z,27.10
2018-09-01T16:55:30.492Z,27.10
2018-09-01T16:57:58.579Z,27.00
2018-09-01T17:00:26.715Z,27.00
2018-09-01T17:02:54.757Z,26.90
2018-09-01T17:05:22.839Z,26.90
2018-09-01T17:07:50.943Z,27.00
2018-09-01T17:10:19.332Z,26.90
2018-09-01T17:12:50.681Z,26.90
2018-09-01T17:15:18.860Z,26.70
2018-09-01T17:17:46.919Z,26.60
2018-09-01T17:20:15.067Z,26.50
2018-09-01T17:22:43.284Z,26.40
2018-09-01T17:25:11.372Z,26.30
2018-09-01T17:30:07.350Z,26.20
2018-09-01T17:32:35.531Z,26.00
2018-09-01T17:35:03.645Z,26.00
2018-09-01T17:37:31.783Z,25.90
2018-09-01T17:39:59.890Z,25.70
2018-09-01T17:42:28.047Z,25.60
2018-09-01T17:44:56.233Z,25.50
2018-09-01T17:47:24.324Z,25.30
2018-09-01T17:49:53.620Z,25.20
2018-09-01T17:52:21.728Z,25.10
2018-09-01T17:54:49.859Z,25.10
2018-09-01T17:57:17.984Z,24.90
2018-09-01T17:59:46.103Z,24.80
2018-09-01T18:02:21.129Z,24.80
2018-09-01T18:04:49.407Z,24.70
2018-09-01T18:07:17.547Z,24.60
2018-09-01T18:09:45.897Z,24.50
2018-09-01T18:12:14.311Z,24.50
2018-09-01T18:14:42.447Z,24.40
2018-09-01T18:17:10.557Z,24.30
2018-09-01T18:22:06.816Z,24.00
2018-09-01T18:31:58.752Z,23.50
2018-09-01T18:36:55.412Z,23.30
2018-09-01T18:44:20.918Z,23.10
2018-09-01T18:46:49.119Z,23.00
2018-09-01T18:49:17.271Z,23.00
2018-09-01T18:51:45.452Z,22.90
2018-09-01T18:54:13.806Z,22.80
2018-09-01T18:56:41.836Z,22.70
2018-09-01T18:59:16.703Z,22.60
2018-09-01T19:01:44.832Z,22.50
2018-09-01T19:04:13.158Z,22.50
2018-09-01T19:06:41.437Z,22.50
2018-09-01T19:09:09.552Z,22.40
2018-09-01T19:11:37.861Z,22.40
2018-09-01T19:14:06.100Z,22.30
2018-09-01T19:16:34.319Z,22.30
2018-09-01T19:19:02.512Z,22.20
2018-09-01T19:21:30.862Z,22.10
2018-09-01T19:23:59.188Z,22.10
2018-09-01T19:26:27.303Z,22.10
2018-09-01T19:28:55.608Z,22.00
2018-09-01T19:31:23.890Z,22.00
2018-09-01T19:33:52.728Z,21.90
2018-09-01T19:36:21.182Z,21.80
2018-09-01T19:38:49.501Z,21.80
2018-09-01T19:41:17.712Z,21.70
2018-09-01T19:43:46.071Z,21.70
2018-09-01T19:46:14.394Z,21.80
2018-09-01T19:48:43.069Z,21.80
2018-09-01T19:51:11.312Z,21.70
2018-09-01T19:53:39.446Z,21.70
2018-09-01T19:56:07.745Z,21.70
2018-09-01T19:58:35.969Z,21.60
2018-09-01T20:01:04.150Z,21.50
2018-09-01T20:03:32.352Z,21.50
2018-09-01T20:06:00.445Z,21.50
2018-09-01T20:08:28.782Z,21.40
2018-09-01T20:10:56.987Z,21.30
2018-09-01T20:13:25.163Z,21.30
2018-09-01T20:15:53.291Z,21.20
2018-09-01T20:18:21.641Z,21.20
2018-09-01T20:20:49.872Z,21.20
2018-09-01T20:23:18.102Z,21.20
2018-09-01T20:25:46.303Z,21.20
2018-09-01T20:28:14.411Z,21.20
2018-09-01T20:30:42.534Z,21.20
2018-09-01T20:33:10.839Z,21.10
2018-09-01T20:35:44.652Z,21.10
2018-09-01T20:38:12.819Z,21.10
2018-09-01T20:40:41.074Z,21.00
2018-09-01T20:43:09.191Z,21.00
2018-09-01T20:45:37.483Z,21.00
2018-09-01T20:48:05.875Z,21.00
2018-09-01T20:50:34.152Z,20.90
2018-09-01T20:53:02.416Z,20.80
2018-09-01T20:55:30.636Z,20.80
2018-09-01T20:57:59.348Z,20.80
2018-09-01T21:00:27.719Z,20.50
2018-09-01T21:02:55.943Z,20.40
2018-09-01T21:05:24.090Z,20.60
2018-09-01T21:07:52.719Z,20.60
2018-09-01T21:10:21.050Z,20.60
2018-09-01T21:12:50.128Z,20.60
2018-09-01T21:15:18.318Z,20.60
2018-09-01T21:17:48.123Z,20.50
2018-09-01T21:20:16.323Z,20.50
2018-09-01T21:22:44.468Z,20.40
2018-09-01T21:25:12.555Z,20.40
2018-09-01T21:27:40.690Z,20.40
2018-09-01T21:30:11.863Z,20.30
2018-09-01T21:32:40.056Z,20.20
2018-09-01T21:35:08.205Z,20.00
2018-09-01T21:37:36.307Z,20.00
2018-09-01T21:40:05.303Z,20.10
2018-09-01T21:42:33.485Z,20.10
2018-09-01T21:45:01.635Z,20.10
2018-09-01T21:47:29.763Z,20.00
2018-09-01T21:49:57.915Z,20.00
2018-09-01T21:52:26.042Z,20.00
2018-09-01T21:54:54.150Z,20.00
2018-09-01T21:57:22.268Z,20.00
2018-09-01T21:59:51.211Z,19.90
2018-09-01T22:02:24.240Z,19.90
2018-09-01T22:04:58.312Z,19.80
2018-09-01T22:07:26.407Z,19.80
2018-09-01T22:09:55.098Z,19.70
2018-09-01T22:12:23.460Z,19.80
2018-09-01T22:14:52.652Z,19.70
2018-09-01T22:17:21.271Z,19.70
2018-09-01T22:19:49.899Z,19.70
2018-09-01T22:22:18.024Z,19.60
2018-09-01T22:24:46.129Z,19.60
2018-09-01T22:27:14.443Z,19.50
2018-09-01T22:29:42.565Z,19.40
2018-09-01T22:32:17.240Z,19.40
2018-09-01T22:34:45.340Z,19.30
2018-09-01T22:37:13.533Z,19.30
2018-09-01T22:39:41.635Z,19.30
2018-09-01T22:42:09.828Z,19.30
2018-09-01T22:44:37.985Z,19.30
2018-09-01T22:47:08.643Z,19.30
2018-09-01T22:49:36.754Z,19.30
2018-09-01T22:52:04.891Z,19.20
2018-09-01T22:54:33.608Z,19.30
2018-09-01T22:57:01.851Z,19.30
2018-09-01T22:59:30.004Z,19.20
2018-09-01T23:01:58.206Z,19.10
2018-09-01T23:04:26.344Z,19.10
2018-09-01T23:06:54.443Z,19.10
2018-09-01T23:09:22.628Z,19.00
2018-09-01T23:11:50.823Z,18.90
2018-09-01T23:14:19.102Z,18.90
2018-09-01T23:16:47.254Z,18.80
2018-09-01T23:19:15.352Z,18.80
2018-09-01T23:21:43.493Z,18.70
2018-09-01T23:24:11.616Z,18.70
2018-09-01T23:26:39.735Z,18.60
2018-09-01T23:29:07.850Z,18.60
2018-09-01T23:31:35.990Z,18.50
2018-09-01T23:34:04.176Z,18.50
2018-09-01T23:36:32.305Z,18.40
2018-09-01T23:39:00.446Z,18.30
2018-09-01T23:41:28.568Z,18.30
2018-09-01T23:43:56.688Z,18.20
2018-09-01T23:46:24.855Z,18.20
2018-09-01T23:48:53.117Z,18.20
2018-09-01T23:51:21.262Z,18.20
2018-09-01T23:53:49.372Z,18.20
2018-09-01T23:56:17.510Z,18.20
2018-09-01T23:58:45.616Z,18.20
